sensor_id;sensor_type;location;lat;lon;timestamp;pressure;altitude;pressure_sealevel;temperature;humidity
52975;BME280;38839;45.186;5.720;2024-01-27T00:01:55;100710.13;;;9.25;100.00
52975;BME280;38839;45.186;5.720;2024-01-27T00:04:20;100716.16;;;9.24;100.00
52975;BME280;38839;45.186;5.720;2024-01-27T00:06:45;100710.03;;;9.22;100.00
52975;BME280;38839;45.186;5.720;2024-01-27T00:09:10;100713.50;;;9.21;100.00
52975;BME280;38839;45.186;5.720;2024-01-27T00:11:36;100715.19;;;9.19;100.00
52975;BME280;38839;45.186;5.720;2024-01-27T00:14:01;100715.13;;;9.17;100.00
52975;BME280;38839;45.186;5.720;2024-01-27T00:16:28;100709.88;;;9.16;100.00
52975;BME280;38839;45.186;5.720;2024-01-27T00:18:53;100701.94;;;9.11;100.00
52975;BME280;38839;45.186;5.720;2024-01-27T00:21:18;100699.28;;;9.10;100.00
52975;BME280;38839;45.186;5.720;2024-01-27T00:23:43;100698.31;;;9.06;100.00
52975;BME280;38839;45.186;5.720;2024-01-27T00:26:08;100697.19;;;8.96;100.00
52975;BME280;38839;45.186;5.720;2024-01-27T00:28:34;100699.56;;;8.89;100.00
52975;BME280;38839;45.186;5.720;2024-01-27T00:30:59;100697.72;;;8.84;100.00
52975;BME280;38839;45.186;5.720;2024-01-27T00:33:24;100705.47;;;8.83;100.00
52975;BME280;38839;45.186;5.720;2024-01-27T00:35:49;100709.84;;;8.84;100.00
52975;BME280;38839;45.186;5.720;2024-01-27T00:38:15;100707.25;;;8.84;100.00
52975;BME280;38839;45.186;5.720;2024-01-27T00:40:40;100702.06;;;8.84;100.00
52975;BME280;38839;45.186;5.720;2024-01-27T00:43:05;100702.94;;;8.84;100.00
52975;BME280;38839;45.186;5.720;2024-01-27T00:45:30;100702.75;;;8.78;100.00
52975;BME280;38839;45.186;5.720;2024-01-27T00:47:57;100699.22;;;8.76;100.00
52975;BME280;38839;45.186;5.720;2024-01-27T00:50:22;100693.25;;;8.80;100.00
52975;BME280;38839;45.186;5.720;2024-01-27T00:52:47;100695.00;;;8.81;100.00
52975;BME280;38839;45.186;5.720;2024-01-27T00:55:12;100697.72;;;8.84;100.00
52975;BME280;38839;45.186;5.720;2024-01-27T00:57:38;100697.63;;;8.81;100.00
52975;BME280;38839;45.186;5.720;2024-01-27T01:00:04;100698.28;;;8.74;100.00
52975;BME280;38839;45.186;5.720;2024-01-27T01:02:29;100696.03;;;8.86;100.00
52975;BME280;38839;45.186;5.720;2024-01-27T01:04:55;100697.66;;;8.83;100.00
52975;BME280;38839;45.186;5.720;2024-01-27T01:07:20;100701.81;;;8.76;100.00
52975;BME280;38839;45.186;5.720;2024-01-27T01:09:45;100702.75;;;8.78;100.00
52975;BME280;38839;45.186;5.720;2024-01-27T01:12:10;100702.81;;;8.81;100.00
52975;BME280;38839;45.186;5.720;2024-01-27T01:14:36;100695.75;;;8.77;100.00
52975;BME280;38839;45.186;5.720;2024-01-27T01:17:01;100699.41;;;8.82;100.00
52975;BME280;38839;45.186;5.720;2024-01-27T01:19:26;100707.22;;;8.82;100.00
52975;BME280;38839;45.186;5.720;2024-01-27T01:21:51;100708.94;;;8.83;100.00
52975;BME280;38839;45.186;5.720;2024-01-27T01:24:17;100704.44;;;8.76;100.00
52975;BME280;38839;45.186;5.720;2024-01-27T01:26:42;100701.69;;;8.72;100.00
52975;BME280;38839;45.186;5.720;2024-01-27T01:29:07;100698.13;;;8.68;100.00
52975;BME280;38839;45.186;5.720;2024-01-27T01:31:32;100705.97;;;8.70;100.00
52975;BME280;38839;45.186;5.720;2024-01-27T01:33:58;100704.13;;;8.67;100.00
52975;BME280;38839;45.186;5.720;2024-01-27T01:36:23;100703.19;;;8.63;100.00
52975;BME280;38839;45.186;5.720;2024-01-27T01:38:48;100698.75;;;8.61;100.00
52975;BME280;38839;45.186;5.720;2024-01-27T01:41:13;100697.00;;;8.60;100.00
52975;BME280;38839;45.186;5.720;2024-01-27T01:43:39;100696.25;;;8.64;100.00
52975;BME280;38839;45.186;5.720;2024-01-27T01:46:04;100695.50;;;8.68;100.00
52975;BME280;38839;45.186;5.720;2024-01-27T01:48:29;100702.09;;;8.57;100.00
52975;BME280;38839;45.186;5.720;2024-01-27T01:50:55;100694.16;;;8.52;100.00
52975;BME280;38839;45.186;5.720;2024-01-27T01:53:20;100694.88;;;8.46;100.00
52975;BME280;38839;45.186;5.720;2024-01-27T01:55:46;100697.56;;;8.50;100.00
52975;BME280;38839;45.186;5.720;2024-01-27T01:58:11;100698.31;;;8.45;100.00
52975;BME280;38839;45.186;5.720;2024-01-27T02:00:36;100704.38;;;8.46;100.00
52975;BME280;38839;45.186;5.720;2024-01-27T02:03:02;100700.00;;;8.43;100.00
52975;BME280;38839;45.186;5.720;2024-01-27T02:05:27;100705.03;;;8.39;100.00
52975;BME280;38839;45.186;5.720;2024-01-27T02:07:52;100711.84;;;8.35;100.00
52975;BME280;38839;45.186;5.720;2024-01-27T02:10:21;100715.06;;;8.28;100.00
52975;BME280;38839;45.186;5.720;2024-01-27T02:12:46;100711.47;;;8.23;100.00
52975;BME280;38839;45.186;5.720;2024-01-27T02:15:12;100706.34;;;8.26;100.00
52975;BME280;38839;45.186;5.720;2024-01-27T02:17:38;100707.81;;;8.18;100.00
52975;BME280;38839;45.186;5.720;2024-01-27T02:20:03;100700.00;;;8.18;100.00
52975;BME280;38839;45.186;5.720;2024-01-27T02:22:29;100701.75;;;8.17;100.00
52975;BME280;38839;45.186;5.720;2024-01-27T02:24:54;100702.72;;;8.21;100.00
52975;BME280;38839;45.186;5.720;2024-01-27T02:27:19;100703.59;;;8.21;100.00
52975;BME280;38839;45.186;5.720;2024-01-27T02:29:44;100697.22;;;8.12;100.00
52975;BME280;38839;45.186;5.720;2024-01-27T02:32:10;100705.06;;;8.13;100.00
52975;BME280;38839;45.186;5.720;2024-01-27T02:34:35;100706.06;;;8.17;100.00
52975;BME280;38839;45.186;5.720;2024-01-27T02:37:00;100707.81;;;8.18;100.00
52975;BME280;38839;45.186;5.720;2024-01-27T02:39:25;100705.94;;;8.14;100.00
52975;BME280;38839;45.186;5.720;2024-01-27T02:41:51;100706.88;;;8.14;100.00
52975;BME280;38839;45.186;5.720;2024-01-27T02:44:16;100708.56;;;8.14;100.00
52975;BME280;38839;45.186;5.720;2024-01-27T02:46:41;100708.75;;;8.20;100.00
52975;BME280;38839;45.186;5.720;2024-01-27T02:49:08;100714.84;;;8.20;100.00
52975;BME280;38839;45.186;5.720;2024-01-27T02:51:34;100707.94;;;8.21;100.00
52975;BME280;38839;45.186;5.720;2024-01-27T02:53:59;100713.94;;;8.20;100.00
52975;BME280;38839;45.186;5.720;2024-01-27T02:56:24;100715.66;;;8.19;100.00
52975;BME280;38839;45.186;5.720;2024-01-27T02:58:49;100713.00;;;8.16;100.00
52975;BME280;38839;45.186;5.720;2024-01-27T03:01:15;100713.13;;;8.21;100.00
52975;BME280;38839;45.186;5.720;2024-01-27T03:03:40;100719.94;;;8.17;100.00
52975;BME280;38839;45.186;5.720;2024-01-27T03:06:05;100714.69;;;8.16;100.00
52975;BME280;38839;45.186;5.720;2024-01-27T03:08:30;100712.06;;;8.14;100.00
52975;BME280;38839;45.186;5.720;2024-01-27T03:10:56;100716.22;;;8.09;100.00
52975;BME280;38839;45.186;5.720;2024-01-27T03:13:21;100712.63;;;8.05;100.00
52975;BME280;38839;45.186;5.720;2024-01-27T03:15:46;100710.88;;;8.04;100.00
52975;BME280;38839;45.186;5.720;2024-01-27T03:18:12;100721.16;;;8.01;100.00
52975;BME280;38839;45.186;5.720;2024-01-27T03:20:37;100714.41;;;8.06;100.00
52975;BME280;38839;45.186;5.720;2024-01-27T03:23:02;100714.59;;;8.13;100.00
52975;BME280;38839;45.186;5.720;2024-01-27T03:25:27;100719.16;;;8.20;100.00
52975;BME280;38839;45.186;5.720;2024-01-27T03:27:52;100713.94;;;8.20;100.00
52975;BME280;38839;45.186;5.720;2024-01-27T03:30:18;100715.13;;;8.02;100.00
52975;BME280;38839;45.186;5.720;2024-01-27T03:32:43;100717.28;;;7.89;100.00
52975;BME280;38839;45.186;5.720;2024-01-27T03:35:08;100723.28;;;7.86;100.00
52975;BME280;38839;45.186;5.720;2024-01-27T03:37:34;100718.69;;;7.79;100.00
52975;BME280;38839;45.186;5.720;2024-01-27T03:39:59;100722.22;;;7.81;100.00
52975;BME280;38839;45.186;5.720;2024-01-27T03:42:25;100729.34;;;7.86;100.00
52975;BME280;38839;45.186;5.720;2024-01-27T03:44:50;100728.00;;;7.98;100.00
52975;BME280;38839;45.186;5.720;2024-01-27T03:47:15;100725.34;;;7.96;100.00
52975;BME280;38839;45.186;5.720;2024-01-27T03:49:41;100730.81;;;8.05;100.00
52975;BME280;38839;45.186;5.720;2024-01-27T03:52:06;100727.66;;;8.14;100.00
52975;BME280;38839;45.186;5.720;2024-01-27T03:54:31;100726.94;;;8.20;100.00
52975;BME280;38839;45.186;5.720;2024-01-27T03:56:56;100725.19;;;8.19;100.00
52975;BME280;38839;45.186;5.720;2024-01-27T03:59:21;100725.34;;;8.23;100.00
52975;BME280;38839;45.186;5.720;2024-01-27T04:01:47;100726.06;;;8.19;100.00
52975;BME280;38839;45.186;5.720;2024-01-27T04:04:12;100721.84;;;8.23;100.00
52975;BME280;38839;45.186;5.720;2024-01-27T04:06:39;100728.13;;;8.30;100.00
52975;BME280;38839;45.186;5.720;2024-01-27T04:09:04;100726.25;;;8.25;100.00
52975;BME280;38839;45.186;5.720;2024-01-27T04:11:29;100730.59;;;8.25;100.00
52975;BME280;38839;45.186;5.720;2024-01-27T04:13:54;100734.75;;;8.20;100.00
52975;BME280;38839;45.186;5.720;2024-01-27T04:16:20;100737.41;;;7.94;100.00
52975;BME280;38839;45.186;5.720;2024-01-27T04:18:46;100736.16;;;7.83;100.00
52975;BME280;38839;45.186;5.720;2024-01-27T04:21:11;100735.06;;;7.76;100.00
52975;BME280;38839;45.186;5.720;2024-01-27T04:23:36;100739.19;;;7.70;100.00
52975;BME280;38839;45.186;5.720;2024-01-27T04:26:02;100744.72;;;7.80;100.00
52975;BME280;38839;45.186;5.720;2024-01-27T04:28:27;100744.78;;;7.82;100.00
52975;BME280;38839;45.186;5.720;2024-01-27T04:30:54;100738.44;;;7.74;100.00
52975;BME280;38839;45.186;5.720;2024-01-27T04:33:20;100740.94;;;7.71;100.00
52975;BME280;38839;45.186;5.720;2024-01-27T04:35:45;100742.81;;;7.75;100.00
52975;BME280;38839;45.186;5.720;2024-01-27T04:38:10;100739.69;;;7.59;100.00
52975;BME280;38839;45.186;5.720;2024-01-27T04:40:35;100742.03;;;7.52;100.00
52975;BME280;38839;45.186;5.720;2024-01-27T04:43:01;100741.53;;;7.38;100.00
52975;BME280;38839;45.186;5.720;2024-01-27T04:45:26;100741.66;;;7.41;100.00
52975;BME280;38839;45.186;5.720;2024-01-27T04:47:52;100742.59;;;7.43;100.00
52975;BME280;38839;45.186;5.720;2024-01-27T04:50:18;100738.00;;;7.36;100.00
52975;BME280;38839;45.186;5.720;2024-01-27T04:52:43;100749.81;;;7.28;100.00
52975;BME280;38839;45.186;5.720;2024-01-27T04:55:08;100744.63;;;7.28;100.00
52975;BME280;38839;45.186;5.720;2024-01-27T04:57:34;100738.56;;;7.27;100.00
52975;BME280;38839;45.186;5.720;2024-01-27T04:59:59;100739.56;;;7.31;100.00
52975;BME280;38839;45.186;5.720;2024-01-27T05:02:24;100732.94;;;7.39;100.00
52975;BME280;38839;45.186;5.720;2024-01-27T05:04:50;100737.25;;;7.38;100.00
52975;BME280;38839;45.186;5.720;2024-01-27T05:07:15;100737.41;;;7.43;100.00
52975;BME280;38839;45.186;5.720;2024-01-27T05:09:40;100739.13;;;7.42;100.00
52975;BME280;38839;45.186;5.720;2024-01-27T05:12:05;100730.19;;;7.34;100.00
52975;BME280;38839;45.186;5.720;2024-01-27T05:14:31;100730.94;;;7.32;100.00
52975;BME280;38839;45.186;5.720;2024-01-27T05:16:56;100738.94;;;7.38;100.00
52975;BME280;38839;45.186;5.720;2024-01-27T05:19:21;100740.81;;;7.42;100.00
52975;BME280;38839;45.186;5.720;2024-01-27T05:21:46;100740.22;;;7.49;100.00
52975;BME280;38839;45.186;5.720;2024-01-27T05:24:12;100735.09;;;7.52;100.00
52975;BME280;38839;45.186;5.720;2024-01-27T05:26:37;100732.28;;;7.46;100.00
52975;BME280;38839;45.186;5.720;2024-01-27T05:29:02;100739.78;;;7.37;100.00
52975;BME280;38839;45.186;5.720;2024-01-27T05:31:27;100737.78;;;7.30;100.00
52975;BME280;38839;45.186;5.720;2024-01-27T05:33:53;100733.31;;;7.25;100.00
52975;BME280;38839;45.186;5.720;2024-01-27T05:36:18;100739.22;;;7.21;100.00
52975;BME280;38839;45.186;5.720;2024-01-27T05:38:43;100744.63;;;7.28;100.00
52975;BME280;38839;45.186;5.720;2024-01-27T05:41:09;100743.81;;;7.29;100.00
52975;BME280;38839;45.186;5.720;2024-01-27T05:43:34;100736.75;;;7.24;100.00
52975;BME280;38839;45.186;5.720;2024-01-27T05:45:59;100748.16;;;7.30;100.00
52975;BME280;38839;45.186;5.720;2024-01-27T05:48:25;100750.25;;;7.40;100.00
52975;BME280;38839;45.186;5.720;2024-01-27T05:51:00;100751.31;;;7.45;100.00
52975;BME280;38839;45.186;5.720;2024-01-27T05:53:25;100759.31;;;7.51;100.00
52975;BME280;38839;45.186;5.720;2024-01-27T05:55:51;100752.47;;;7.53;100.00
52975;BME280;38839;45.186;5.720;2024-01-27T05:58:17;100761.19;;;7.55;100.00
52975;BME280;38839;45.186;5.720;2024-01-27T06:00:42;100764.59;;;7.54;100.00
52975;BME280;38839;45.186;5.720;2024-01-27T06:03:08;100757.66;;;7.53;100.00
52975;BME280;38839;45.186;5.720;2024-01-27T06:05:33;100756.72;;;7.51;100.00
52975;BME280;38839;45.186;5.720;2024-01-27T06:07:58;100752.34;;;7.50;100.00
52975;BME280;38839;45.186;5.720;2024-01-27T06:10:23;100747.28;;;7.53;100.00
52975;BME280;38839;45.186;5.720;2024-01-27T06:12:49;100756.00;;;7.55;100.00
52975;BME280;38839;45.186;5.720;2024-01-27T06:15:15;100750.91;;;7.58;100.00
52975;BME280;38839;45.186;5.720;2024-01-27T06:17:41;100759.75;;;7.63;100.00
52975;BME280;38839;45.186;5.720;2024-01-27T06:20:06;100755.44;;;7.64;100.00
52975;BME280;38839;45.186;5.720;2024-01-27T06:22:31;100758.97;;;7.66;100.00
52975;BME280;38839;45.186;5.720;2024-01-27T06:24:58;100759.81;;;7.65;100.00
52975;BME280;38839;45.186;5.720;2024-01-27T06:27:23;100755.44;;;7.64;100.00
52975;BME280;38839;45.186;5.720;2024-01-27T06:29:48;100760.78;;;7.69;100.00
52975;BME280;38839;45.186;5.720;2024-01-27T06:32:13;100758.31;;;7.72;100.00
52975;BME280;38839;45.186;5.720;2024-01-27T06:34:39;100758.50;;;7.78;100.00
52975;BME280;38839;45.186;5.720;2024-01-27T06:37:04;100759.38;;;7.78;100.00
52975;BME280;38839;45.186;5.720;2024-01-27T06:39:30;100763.03;;;7.83;100.00
52975;BME280;38839;45.186;5.720;2024-01-27T06:41:55;100757.88;;;7.85;100.00
52975;BME280;38839;45.186;5.720;2024-01-27T06:44:20;100748.31;;;7.84;100.00
52975;BME280;38839;45.186;5.720;2024-01-27T06:46:45;100750.25;;;7.90;100.00
52975;BME280;38839;45.186;5.720;2024-01-27T06:49:14;100752.06;;;7.92;100.00
52975;BME280;38839;45.186;5.720;2024-01-27T06:51:40;100755.69;;;7.97;100.00
52975;BME280;38839;45.186;5.720;2024-01-27T06:54:05;100756.41;;;7.93;100.00
52975;BME280;38839;45.186;5.720;2024-01-27T06:56:30;100758.91;;;7.90;100.00
52975;BME280;38839;45.186;5.720;2024-01-27T06:58:55;100758.25;;;7.96;100.00
52975;BME280;38839;45.186;5.720;2024-01-27T07:01:21;100756.66;;;8.01;100.00
52975;BME280;38839;45.186;5.720;2024-01-27T07:03:46;100755.19;;;8.09;100.00
52975;BME280;38839;45.186;5.720;2024-01-27T07:06:11;100759.78;;;8.16;100.00
52975;BME280;38839;45.186;5.720;2024-01-27T07:08:36;100764.44;;;8.26;100.00
52975;BME280;38839;45.186;5.720;2024-01-27T07:11:02;100757.56;;;8.29;100.00
52975;BME280;38839;45.186;5.720;2024-01-27T07:13:29;100766.38;;;8.34;100.00
52975;BME280;38839;45.186;5.720;2024-01-27T07:15:55;100762.84;;;8.32;100.00
52975;BME280;38839;45.186;5.720;2024-01-27T07:18:21;100764.59;;;8.31;100.00
52975;BME280;38839;45.186;5.720;2024-01-27T07:20:47;100761.97;;;8.31;100.00
52975;BME280;38839;45.186;5.720;2024-01-27T07:23:12;100767.25;;;8.34;100.00
52975;BME280;38839;45.186;5.720;2024-01-27T07:25:37;100766.44;;;8.35;100.00
52975;BME280;38839;45.186;5.720;2024-01-27T07:28:03;100766.53;;;8.38;100.00
52975;BME280;38839;45.186;5.720;2024-01-27T07:30:28;100769.13;;;8.38;100.00
52975;BME280;38839;45.186;5.720;2024-01-27T07:32:54;100772.66;;;8.40;100.00
52975;BME280;38839;45.186;5.720;2024-01-27T07:35:20;100776.13;;;8.39;100.00
52975;BME280;38839;45.186;5.720;2024-01-27T07:37:45;100769.03;;;8.35;100.00
52975;BME280;38839;45.186;5.720;2024-01-27T07:40:10;100774.25;;;8.35;100.00
52975;BME280;38839;45.186;5.720;2024-01-27T07:42:36;100773.75;;;8.45;100.00
52975;BME280;38839;45.186;5.720;2024-01-27T07:45:01;100777.31;;;8.49;100.00
52975;BME280;38839;45.186;5.720;2024-01-27T07:47:26;100776.59;;;8.55;100.00
52975;BME280;38839;45.186;5.720;2024-01-27T07:49:52;100783.78;;;8.62;100.00
52975;BME280;38839;45.186;5.720;2024-01-27T07:52:17;100782.16;;;8.65;100.00
52975;BME280;38839;45.186;5.720;2024-01-27T07:54:43;100777.91;;;8.68;100.00
52975;BME280;38839;45.186;5.720;2024-01-27T07:57:08;100781.19;;;8.62;100.00
52975;BME280;38839;45.186;5.720;2024-01-27T07:59:34;100781.44;;;8.70;100.00
52975;BME280;38839;45.186;5.720;2024-01-27T08:01:59;100794.47;;;8.71;100.00
52975;BME280;38839;45.186;5.720;2024-01-27T08:04:25;100797.03;;;8.70;100.00
52975;BME280;38839;45.186;5.720;2024-01-27T08:06:50;100792.28;;;8.56;100.00
52975;BME280;38839;45.186;5.720;2024-01-27T08:09:16;100796.13;;;8.69;100.00
52975;BME280;38839;45.186;5.720;2024-01-27T08:11:41;100803.84;;;8.66;100.00
52975;BME280;38839;45.186;5.720;2024-01-27T08:14:07;100799.78;;;8.74;100.00
52975;BME280;38839;45.186;5.720;2024-01-27T08:16:32;100798.97;;;8.77;100.00
52975;BME280;38839;45.186;5.720;2024-01-27T08:18:57;100811.25;;;8.81;100.00
52975;BME280;38839;45.186;5.720;2024-01-27T08:21:23;100814.84;;;8.84;100.00
52975;BME280;38839;45.186;5.720;2024-01-27T08:23:48;100818.25;;;8.83;100.00
52975;BME280;38839;45.186;5.720;2024-01-27T08:26:14;100814.72;;;8.81;100.00
52975;BME280;38839;45.186;5.720;2024-01-27T08:28:39;100820.78;;;8.80;100.00
52975;BME280;38839;45.186;5.720;2024-01-27T08:31:04;100815.84;;;8.90;100.00
52975;BME280;38839;45.186;5.720;2024-01-27T08:33:30;100821.22;;;8.96;100.00
52975;BME280;38839;45.186;5.720;2024-01-27T08:35:55;100830.81;;;8.97;100.00
52975;BME280;38839;45.186;5.720;2024-01-27T08:38:20;100826.34;;;8.93;100.00
52975;BME280;38839;45.186;5.720;2024-01-27T08:40:45;100833.25;;;8.91;100.00
52975;BME280;38839;45.186;5.720;2024-01-27T08:43:11;100841.97;;;8.93;100.00
52975;BME280;38839;45.186;5.720;2024-01-27T08:45:39;100839.75;;;8.76;100.00
52975;BME280;38839;45.186;5.720;2024-01-27T08:48:05;100844.34;;;8.85;100.00
52975;BME280;38839;45.186;5.720;2024-01-27T08:50:31;100846.31;;;8.92;100.00
52975;BME280;38839;45.186;5.720;2024-01-27T08:52:56;100836.97;;;8.99;100.00
52975;BME280;38839;45.186;5.720;2024-01-27T08:55:21;100845.50;;;8.95;100.00
52975;BME280;38839;45.186;5.720;2024-01-27T08:57:49;100836.47;;;9.12;100.00
52975;BME280;38839;45.186;5.720;2024-01-27T09:00:14;100841.31;;;9.00;100.00
52975;BME280;38839;45.186;5.720;2024-01-27T09:02:40;100840.19;;;9.20;100.00
52975;BME280;38839;45.186;5.720;2024-01-27T09:05:05;100840.94;;;9.16;100.00
52975;BME280;38839;45.186;5.720;2024-01-27T09:07:33;100841.34;;;9.30;100.00
52975;BME280;38839;45.186;5.720;2024-01-27T09:09:58;100837.38;;;9.43;100.00
52975;BME280;38839;45.186;5.720;2024-01-27T09:12:23;100845.19;;;9.43;100.00
52975;BME280;38839;45.186;5.720;2024-01-27T09:14:49;100844.31;;;9.42;100.00
52975;BME280;38839;45.186;5.720;2024-01-27T09:17:14;100857.00;;;9.01;100.00
52975;BME280;38839;45.186;5.720;2024-01-27T09:19:39;100842.47;;;9.10;100.00
52975;BME280;38839;45.186;5.720;2024-01-27T09:22:04;100851.72;;;9.00;100.00
52975;BME280;38839;45.186;5.720;2024-01-27T09:24:32;100846.25;;;8.91;100.00
52975;BME280;38839;45.186;5.720;2024-01-27T09:26:57;100855.53;;;8.82;100.00
52975;BME280;38839;45.186;5.720;2024-01-27T09:29:23;100847.19;;;8.93;100.00
52975;BME280;38839;45.186;5.720;2024-01-27T09:31:48;100850.59;;;8.92;100.00
52975;BME280;38839;45.186;5.720;2024-01-27T09:34:14;100857.97;;;9.05;100.00
52975;BME280;38839;45.186;5.720;2024-01-27T09:36:39;100853.56;;;9.02;100.00
52975;BME280;38839;45.186;5.720;2024-01-27T09:39:04;100843.53;;;9.15;100.00
52975;BME280;38839;45.186;5.720;2024-01-27T09:41:32;100848.72;;;9.45;100.00
52975;BME280;38839;45.186;5.720;2024-01-27T09:44:01;100849.03;;;9.56;100.00
52975;BME280;38839;45.186;5.720;2024-01-27T09:46:28;100846.38;;;9.86;100.00
52975;BME280;38839;45.186;5.720;2024-01-27T09:48:53;100852.16;;;10.07;100.00
52975;BME280;38839;45.186;5.720;2024-01-27T09:51:19;100846.34;;;10.18;100.00
52975;BME280;38839;45.186;5.720;2024-01-27T09:53:44;100849.94;;;10.21;100.00
52975;BME280;38839;45.186;5.720;2024-01-27T09:56:10;100846.25;;;9.81;100.00
52975;BME280;38839;45.186;5.720;2024-01-27T09:58:37;100861.06;;;9.82;100.00
52975;BME280;38839;45.186;5.720;2024-01-27T10:01:02;100854.78;;;9.76;100.00
52975;BME280;38839;45.186;5.720;2024-01-27T10:03:28;100858.06;;;10.00;100.00
52975;BME280;38839;45.186;5.720;2024-01-27T10:05:54;100860.25;;;9.85;100.00
52975;BME280;38839;45.186;5.720;2024-01-27T10:08:20;100860.59;;;9.97;100.00
52975;BME280;38839;45.186;5.720;2024-01-27T10:10:45;100852.97;;;10.05;100.00
52975;BME280;38839;45.186;5.720;2024-01-27T10:13:11;100854.09;;;10.15;100.00
52975;BME280;38839;45.186;5.720;2024-01-27T10:15:38;100855.31;;;10.29;100.00
52975;BME280;38839;45.186;5.720;2024-01-27T10:18:07;100870.19;;;10.30;100.00
52975;BME280;38839;45.186;5.720;2024-01-27T10:20:33;100851.97;;;10.32;100.00
52975;BME280;38839;45.186;5.720;2024-01-27T10:22:59;100850.88;;;10.25;100.00
52975;BME280;38839;45.186;5.720;2024-01-27T10:25:30;100847.97;;;10.46;100.00
52975;BME280;38839;45.186;5.720;2024-01-27T10:27:55;100848.03;;;10.49;100.00
52975;BME280;38839;45.186;5.720;2024-01-27T10:30:23;100846.44;;;10.54;100.00
52975;BME280;38839;45.186;5.720;2024-01-27T10:32:55;100846.53;;;10.59;100.00
52975;BME280;38839;45.186;5.720;2024-01-27T10:35:21;100848.13;;;10.54;100.00
52975;BME280;38839;45.186;5.720;2024-01-27T10:37:50;100844.69;;;10.55;100.00
52975;BME280;38839;45.186;5.720;2024-01-27T10:40:16;100845.16;;;10.38;100.00
52975;BME280;38839;45.186;5.720;2024-01-27T10:42:41;100837.56;;;10.14;100.00
52975;BME280;38839;45.186;5.720;2024-01-27T10:45:08;100836.69;;;10.14;100.00
52975;BME280;38839;45.186;5.720;2024-01-27T10:47:34;100832.88;;;10.34;100.00
52975;BME280;38839;45.186;5.720;2024-01-27T10:50:00;100830.00;;;10.25;100.00
52975;BME280;38839;45.186;5.720;2024-01-27T10:52:29;100828.09;;;10.18;100.00
52975;BME280;38839;45.186;5.720;2024-01-27T10:54:59;100831.44;;;10.47;100.00
52975;BME280;38839;45.186;5.720;2024-01-27T10:57:25;100824.25;;;10.37;100.00
52975;BME280;38839;45.186;5.720;2024-01-27T10:59:51;100823.44;;;10.39;100.00
52975;BME280;38839;45.186;5.720;2024-01-27T11:02:18;100815.66;;;10.41;100.00
52975;BME280;38839;45.186;5.720;2024-01-27T11:04:43;100815.22;;;10.59;100.00
52975;BME280;38839;45.186;5.720;2024-01-27T11:07:09;100801.16;;;10.54;100.00
52975;BME280;38839;45.186;5.720;2024-01-27T11:09:35;100796.94;;;10.59;100.00
52975;BME280;38839;45.186;5.720;2024-01-27T11:12:01;100789.84;;;10.53;100.00
52975;BME280;38839;45.186;5.720;2024-01-27T11:14:27;100783.31;;;10.72;100.00
52975;BME280;38839;45.186;5.720;2024-01-27T11:16:56;100784.31;;;10.77;100.00
52975;BME280;38839;45.186;5.720;2024-01-27T11:19:21;100778.03;;;10.69;100.00
52975;BME280;38839;45.186;5.720;2024-01-27T11:21:47;100772.72;;;10.66;100.00
52975;BME280;38839;45.186;5.720;2024-01-27T11:24:16;100771.31;;;10.80;100.00
52975;BME280;38839;45.186;5.720;2024-01-27T11:26:42;100766.81;;;10.73;100.00
52975;BME280;38839;45.186;5.720;2024-01-27T11:29:07;100767.72;;;10.75;100.00
52975;BME280;38839;45.186;5.720;2024-01-27T11:31:34;100768.50;;;10.71;100.00
52975;BME280;38839;45.186;5.720;2024-01-27T11:34:00;100758.34;;;10.83;100.00
52975;BME280;38839;45.186;5.720;2024-01-27T11:36:25;100761.22;;;10.96;100.00
52975;BME280;38839;45.186;5.720;2024-01-27T11:38:52;100762.22;;;11.02;100.00
52975;BME280;38839;45.186;5.720;2024-01-27T11:41:24;100756.69;;;10.88;100.00
52975;BME280;38839;45.186;5.720;2024-01-27T11:43:54;100751.84;;;11.07;100.00
52975;BME280;38839;45.186;5.720;2024-01-27T11:46:19;100754.50;;;11.08;100.00
52975;BME280;38839;45.186;5.720;2024-01-27T11:48:45;100745.72;;;11.03;100.00
52975;BME280;38839;45.186;5.720;2024-01-27T11:51:11;100733.78;;;11.16;100.00
52975;BME280;38839;45.186;5.720;2024-01-27T11:53:36;100735.66;;;11.25;100.00
52975;BME280;38839;45.186;5.720;2024-01-27T11:56:03;100727.91;;;11.30;100.00
52975;BME280;38839;45.186;5.720;2024-01-27T11:58:28;100726.16;;;11.28;100.00
52975;BME280;38839;45.186;5.720;2024-01-27T12:00:55;100721.97;;;11.37;100.00
52975;BME280;38839;45.186;5.720;2024-01-27T12:03:20;100721.16;;;11.41;100.00
52975;BME280;38839;45.186;5.720;2024-01-27T12:05:46;100714.28;;;11.44;100.00
52975;BME280;38839;45.186;5.720;2024-01-27T12:08:11;100714.44;;;11.54;100.00
52975;BME280;38839;45.186;5.720;2024-01-27T12:10:37;100716.22;;;11.56;100.00
52975;BME280;38839;45.186;5.720;2024-01-27T12:13:02;100709.34;;;11.61;100.00
52975;BME280;38839;45.186;5.720;2024-01-27T12:15:27;100699.78;;;11.63;100.00
52975;BME280;38839;45.186;5.720;2024-01-27T12:17:53;100692.81;;;11.64;100.00
52975;BME280;38839;45.186;5.720;2024-01-27T12:20:18;100696.41;;;11.69;100.00
52975;BME280;38839;45.186;5.720;2024-01-27T12:22:43;100698.22;;;11.75;100.00
52975;BME280;38839;45.186;5.720;2024-01-27T12:25:09;100693.19;;;11.87;100.00
52975;BME280;38839;45.186;5.720;2024-01-27T12:27:35;100681.78;;;11.80;100.00
52975;BME280;38839;45.186;5.720;2024-01-27T12:30:00;100676.59;;;11.85;100.00
52975;BME280;38839;45.186;5.720;2024-01-27T12:32:25;100680.19;;;11.88;100.00
52975;BME280;38839;45.186;5.720;2024-01-27T12:34:51;100676.56;;;11.82;100.00
52975;BME280;38839;45.186;5.720;2024-01-27T12:37:16;100671.50;;;11.91;100.00
52975;BME280;38839;45.186;5.720;2024-01-27T12:39:44;100669.81;;;11.93;100.00